Main page
METAR-TAF:

METAR-TAF

Airports :

Lea County Regional Airport

Hobbs, New Mexico, United States

latitude: 32-41N, longitude: 103-13W, elevation: 3657 ft

Current weather observation

The report was made 20 minutes ago, at 20:50 UTC
Wind 8 mph from the South
Temperature 54°F
Humidity 58%
Pressure 30.22 in. Hg
Visibility: 10 miles
Clear sky

METAR: KHOB 212050Z 17007KT 10SM CLR 12/04 A3022

Time: 14:10 (21:10 UTC)

Forecast

The report was made 3 hours and 50 minutes ago, at 17:20 UTC
Forecast valid from 21 at 18 UTC to 22 at 18 UTC
Wind 8 mph from the South/Southeast
Visibility: 6 miles
Overcast at a height of 2500 ft
From 21 at 2000 UTC
Wind 8 mph from the Southeast
Visibility: 6 miles
Few clouds at a height of 11000 ft
From 22 at 1100 UTC
Wind 3 mph from variable directions
Visibility: 3 miles
Clear sky
mist

TAF: KHOB 211720Z 2118/2218 15007KT P6SM OVC025 FM212000 14007KT P6SM FEW110 FM221100 VRB03KT 3SM BR SKC

Weather observations and forecasts of more than 4000 airports (METAR and TAF reports).

The available stations are represented by yellow and red dots on the map.

Hover mouse over dot to see the name of the station.

Then click to see weather observations and forecasts.

To change the map : click on the green buttons with a black cross to zoom in, on the green button with a dash to zoom out, or on the green arrows for adjacent maps.


METAR-TAF: